createdAt,value
2016-03-30T00:00:45.232Z,0
2016-03-30T00:01:45.095Z,0
2016-03-30T00:02:44.456Z,0
2016-03-30T00:03:44.272Z,0
2016-03-30T00:04:44.415Z,0
2016-03-30T00:05:44.386Z,0
2016-03-30T00:06:44.405Z,0
2016-03-30T00:07:44.376Z,0
2016-03-30T00:08:44.364Z,0
2016-03-30T00:09:44.381Z,0
2016-03-30T00:10:44.369Z,0
2016-03-30T00:11:44.325Z,0
2016-03-30T00:12:44.328Z,0
2016-03-30T00:13:44.330Z,0
2016-03-30T00:14:44.238Z,0
2016-03-30T00:15:44.336Z,0
2016-03-30T00:16:44.291Z,0
2016-03-30T00:17:44.294Z,0
2016-03-30T00:18:44.328Z,0
2016-03-30T00:19:44.300Z,0
2016-03-30T00:20:44.286Z,0
2016-03-30T00:21:44.226Z,0
2016-03-30T00:22:44.214Z,0
2016-03-30T00:23:44.279Z,0
2016-03-30T00:24:44.266Z,0
2016-03-30T00:25:44.237Z,0
2016-03-30T00:26:44.240Z,0
2016-03-30T00:27:44.212Z,0
2016-03-30T00:28:44.198Z,0
2016-03-30T00:29:44.232Z,0
2016-03-30T00:30:44.188Z,0
2016-03-30T00:31:44.159Z,0
2016-03-30T00:32:44.193Z,0
2016-03-30T00:33:44.164Z,0
2016-03-30T00:34:44.183Z,0
2016-03-30T00:35:43.983Z,0
2016-03-30T00:36:44.141Z,0
2016-03-30T00:37:44.114Z,0
2016-03-30T00:38:44.100Z,0
2016-03-30T00:39:44.119Z,0
2016-03-30T00:40:44.153Z,0
2016-03-30T00:41:44.124Z,0
2016-03-30T00:42:44.064Z,0
2016-03-30T00:43:44.050Z,0
2016-03-30T00:44:43.961Z,0
2016-03-30T00:45:44.072Z,0
2016-03-30T00:46:44.028Z,0
2016-03-30T00:47:44.046Z,0
2016-03-30T00:48:44.033Z,0
2016-03-30T00:49:44.021Z,0
2016-03-30T00:50:43.992Z,0
2016-03-30T00:51:43.995Z,0
2016-03-30T00:52:43.966Z,0
2016-03-30T00:53:43.984Z,0
2016-03-30T00:54:43.971Z,0
2016-03-30T00:55:43.958Z,0
2016-03-30T00:56:43.946Z,0
2016-03-30T00:57:43.963Z,0
2016-03-30T00:58:43.920Z,0
2016-03-30T00:59:43.985Z,0
2016-03-30T01:00:43.940Z,0
2016-03-30T01:01:43.913Z,0
2016-03-30T01:02:44.618Z,0
2016-03-30T01:03:44.809Z,0
2016-03-30T01:04:58.217Z,0
2016-03-30T01:05:44.267Z,0
2016-03-30T01:06:45.064Z,0
2016-03-30T01:07:45.696Z,0
2016-03-30T01:08:44.923Z,0
2016-03-30T01:09:43.805Z,0
2016-03-30T01:10:44.000Z,0
2016-03-30T01:11:46.697Z,0
2016-03-30T01:12:45.258Z,0
2016-03-30T01:13:43.725Z,0
2016-03-30T01:14:58.802Z,0
2016-03-30T01:15:59.206Z,0
2016-03-30T01:16:59.955Z,0
2016-03-30T01:17:44.394Z,0
2016-03-30T01:18:44.598Z,0
2016-03-30T01:19:44.365Z,0
2016-03-30T01:20:44.023Z,0
2016-03-30T01:21:43.633Z,0
2016-03-30T01:22:43.636Z,0
2016-03-30T01:23:43.622Z,0
2016-03-30T01:24:43.609Z,0
2016-03-30T01:25:43.595Z,0
2016-03-30T01:26:43.614Z,0
2016-03-30T01:27:43.585Z,0
2016-03-30T01:28:43.572Z,0
2016-03-30T01:29:43.512Z,0
2016-03-30T01:30:43.547Z,0
2016-03-30T01:31:43.549Z,0
2016-03-30T01:32:43.552Z,0
2016-03-30T01:33:43.555Z,0
2016-03-30T01:34:43.511Z,0
2016-03-30T01:35:43.513Z,0
2016-03-30T01:36:43.499Z,0
2016-03-30T01:37:43.502Z,0
2016-03-30T01:38:43.474Z,0
2016-03-30T01:39:43.477Z,0
2016-03-30T01:40:43.464Z,0
2016-03-30T01:41:43.451Z,0
2016-03-30T01:42:43.438Z,0
2016-03-30T01:43:43.440Z,0
2016-03-30T01:44:43.553Z,0
2016-03-30T01:45:43.430Z,0
2016-03-30T01:46:43.402Z,0
2016-03-30T01:47:43.404Z,0
2016-03-30T01:48:43.377Z,0
2016-03-30T01:49:43.394Z,0
2016-03-30T01:50:43.382Z,0
2016-03-30T01:51:43.369Z,0
2016-03-30T01:52:43.324Z,0
2016-03-30T01:53:43.358Z,0
2016-03-30T01:54:43.314Z,0
2016-03-30T01:55:43.348Z,0
2016-03-30T01:56:43.335Z,0
2016-03-30T01:57:43.323Z,0
2016-03-30T01:58:43.293Z,0
2016-03-30T01:59:43.295Z,0
2016-03-30T02:00:43.267Z,0
2016-03-30T02:01:43.255Z,0
2016-03-30T02:02:43.086Z,0
2016-03-30T02:03:43.260Z,0
2016-03-30T02:04:43.231Z,0
2016-03-30T02:05:43.250Z,0
2016-03-30T02:06:43.221Z,0
2016-03-30T02:07:43.630Z,0
2016-03-30T02:08:43.195Z,0
2016-03-30T02:09:43.198Z,0
2016-03-30T02:10:43.185Z,0
2016-03-30T02:11:43.188Z,0
2016-03-30T02:12:43.174Z,0
2016-03-30T02:13:43.163Z,0
2016-03-30T02:14:43.165Z,0
2016-03-30T02:15:43.151Z,0
2016-03-30T02:16:43.124Z,0
2016-03-30T02:17:43.126Z,0
2016-03-30T02:18:43.097Z,0
2016-03-30T02:19:43.116Z,0
2016-03-30T02:20:43.087Z,0
2016-03-30T02:21:58.012Z,0
2016-03-30T02:22:43.062Z,0
2016-03-30T02:23:43.064Z,0
2016-03-30T02:24:44.223Z,0
2016-03-30T02:26:43.307Z,0
2016-03-30T02:27:44.200Z,0
2016-03-30T02:28:43.734Z,0
2016-03-30T02:29:43.049Z,0
2016-03-30T02:30:44.302Z,0
2016-03-30T02:31:43.039Z,0
2016-03-30T02:32:57.964Z,0
2016-03-30T02:33:58.700Z,0
2016-03-30T02:34:44.047Z,0
2016-03-30T02:35:42.972Z,0
2016-03-30T02:36:44.178Z,0
2016-03-30T02:37:43.852Z,0
2016-03-30T02:38:43.355Z,0
2016-03-30T02:39:42.919Z,0
2016-03-30T02:40:42.938Z,0
2016-03-30T02:41:43.050Z,0
2016-03-30T02:42:42.897Z,0
2016-03-30T02:43:42.899Z,0
2016-03-30T02:44:42.886Z,0
2016-03-30T02:45:42.858Z,0
2016-03-30T02:46:42.876Z,0
2016-03-30T02:47:42.847Z,0
2016-03-30T02:48:42.834Z,0
2016-03-30T02:49:42.838Z,0
2016-03-30T02:50:42.840Z,0
2016-03-30T02:51:42.827Z,0
2016-03-30T02:52:42.799Z,0
2016-03-30T02:53:42.816Z,0
2016-03-30T02:54:42.804Z,0
2016-03-30T02:55:42.788Z,0
2016-03-30T02:56:42.760Z,0
2016-03-30T02:57:42.778Z,0
2016-03-30T02:58:42.766Z,0
2016-03-30T02:59:42.752Z,0
2016-03-30T03:00:42.723Z,0
2016-03-30T03:01:42.726Z,0
2016-03-30T03:02:42.729Z,0
2016-03-30T03:03:42.715Z,0
2016-03-30T03:04:42.703Z,0
2016-03-30T03:05:42.690Z,0
2016-03-30T03:06:42.678Z,0
2016-03-30T03:07:42.695Z,0
2016-03-30T03:08:42.667Z,0
2016-03-30T03:09:42.639Z,0
2016-03-30T03:10:42.641Z,0
2016-03-30T03:11:42.644Z,0
2016-03-30T03:12:42.631Z,0
2016-03-30T03:13:42.633Z,0
2016-03-30T03:14:42.620Z,0
2016-03-30T03:15:42.623Z,0
2016-03-30T03:16:42.595Z,0
2016-03-30T03:17:42.583Z,0
2016-03-30T03:18:42.586Z,0
2016-03-30T03:19:42.587Z,0
2016-03-30T03:20:42.575Z,0
2016-03-30T03:21:42.547Z,0
2016-03-30T03:22:42.549Z,0
2016-03-30T03:23:42.520Z,0
2016-03-30T03:24:42.539Z,0
2016-03-30T03:25:42.525Z,0
2016-03-30T03:26:42.528Z,0
2016-03-30T03:27:42.485Z,0
2016-03-30T03:28:42.502Z,0
2016-03-30T03:29:42.474Z,0
2016-03-30T03:30:42.461Z,0
2016-03-30T03:31:42.479Z,0
2016-03-30T03:32:42.450Z,0
2016-03-30T03:33:42.437Z,0
2016-03-30T03:34:42.440Z,0
2016-03-30T03:35:42.443Z,0
2016-03-30T03:36:42.445Z,0
2016-03-30T03:37:42.418Z,0
2016-03-30T03:38:42.420Z,0
2016-03-30T03:39:42.392Z,0
2016-03-30T03:40:42.895Z,0
2016-03-30T03:41:42.787Z,0
2016-03-30T03:42:42.384Z,0
2016-03-30T03:43:44.620Z,0
2016-03-30T03:44:43.186Z,0
2016-03-30T03:45:42.689Z,0
2016-03-30T03:46:42.706Z,0
2016-03-30T03:47:42.320Z,0
2016-03-30T03:48:42.494Z,0
2016-03-30T03:49:44.294Z,0
2016-03-30T03:50:43.265Z,0
2016-03-30T03:52:10.927Z,0
2016-03-30T03:52:57.804Z,0
2016-03-30T03:53:44.272Z,0
2016-03-30T03:54:43.338Z,0
2016-03-30T03:55:42.575Z,0
2016-03-30T03:56:42.655Z,0
2016-03-30T03:57:42.721Z,0
2016-03-30T03:58:42.457Z,0
2016-03-30T03:59:42.241Z,0
2016-03-30T04:00:42.229Z,0
2016-03-30T04:01:42.216Z,0
2016-03-30T04:02:42.203Z,0
2016-03-30T04:03:42.206Z,0
2016-03-30T04:04:42.193Z,0
2016-03-30T04:05:42.211Z,0
2016-03-30T04:06:42.214Z,0
2016-03-30T04:07:42.170Z,0
2016-03-30T04:08:42.157Z,0
2016-03-30T04:09:42.143Z,0
2016-03-30T04:10:42.146Z,0
2016-03-30T04:11:42.165Z,0
2016-03-30T04:12:42.167Z,0
2016-03-30T04:13:42.123Z,0
2016-03-30T04:14:42.125Z,0
2016-03-30T04:15:42.113Z,0
2016-03-30T04:16:42.116Z,0
2016-03-30T04:17:42.118Z,0
2016-03-30T04:18:42.090Z,0
2016-03-30T04:19:42.061Z,0
2016-03-30T04:20:42.095Z,0
2016-03-30T04:21:42.051Z,0
2016-03-30T04:22:42.039Z,0
2016-03-30T04:23:42.056Z,0
2016-03-30T04:24:42.028Z,0
2016-03-30T04:25:42.030Z,0
2016-03-30T04:26:42.033Z,0
2016-03-30T04:27:42.021Z,0
2016-03-30T04:28:42.008Z,0
2016-03-30T04:29:41.995Z,0
2016-03-30T04:30:42.013Z,0
2016-03-30T04:31:41.969Z,0
2016-03-30T04:32:42.019Z,0
2016-03-30T04:33:41.974Z,0
2016-03-30T04:34:41.961Z,0
2016-03-30T04:35:41.995Z,0
2016-03-30T04:36:41.982Z,0
2016-03-30T04:37:41.923Z,0
2016-03-30T04:38:41.940Z,0
2016-03-30T04:39:41.928Z,0
2016-03-30T04:40:41.945Z,0
2016-03-30T04:41:41.917Z,0
2016-03-30T04:42:41.889Z,5
2016-03-30T04:43:41.922Z,5
2016-03-30T04:44:41.895Z,5
2016-03-30T04:45:41.897Z,5
2016-03-30T04:46:41.868Z,5
2016-03-30T04:47:41.856Z,5
2016-03-30T04:48:41.874Z,0
2016-03-30T04:49:41.830Z,0
2016-03-30T04:50:41.848Z,0
2016-03-30T04:51:41.835Z,0
2016-03-30T04:52:41.838Z,0
2016-03-30T04:53:41.794Z,0
2016-03-30T04:54:41.827Z,0
2016-03-30T04:55:41.799Z,0
2016-03-30T04:56:41.801Z,5
2016-03-30T04:57:41.804Z,5
2016-03-30T04:58:41.775Z,5
2016-03-30T04:59:43.106Z,5
2016-03-30T05:00:43.016Z,5
2016-03-30T05:01:42.112Z,5
2016-03-30T05:02:44.365Z,5
2016-03-30T05:03:42.539Z,5
2016-03-30T05:04:42.620Z,5
2016-03-30T05:05:42.857Z,5
2016-03-30T05:06:41.828Z,5
2016-03-30T05:07:42.471Z,5
2016-03-30T05:08:57.727Z,5
2016-03-30T05:09:56.090Z,5
2016-03-30T05:10:41.808Z,5
2016-03-30T05:12:44.595Z,5
2016-03-30T05:13:43.582Z,5
2016-03-30T05:14:42.616Z,5
2016-03-30T05:15:42.775Z,10
2016-03-30T05:16:41.996Z,10
2016-03-30T05:17:41.623Z,10
2016-03-30T05:18:41.892Z,10
2016-03-30T05:19:41.644Z,10
2016-03-30T05:20:41.616Z,10
2016-03-30T05:21:41.603Z,10
2016-03-30T05:22:41.621Z,10
2016-03-30T05:23:41.577Z,10
2016-03-30T05:24:41.595Z,10
2016-03-30T05:25:41.614Z,10
2016-03-30T05:26:41.586Z,10
2016-03-30T05:27:41.572Z,10
2016-03-30T05:28:41.560Z,15
2016-03-30T05:29:41.563Z,15
2016-03-30T05:30:41.549Z,15
2016-03-30T05:31:41.552Z,15
2016-03-30T05:32:41.523Z,15
2016-03-30T05:33:41.526Z,15
2016-03-30T05:34:41.529Z,15
2016-03-30T05:35:41.515Z,15
2016-03-30T05:36:41.518Z,15
2016-03-30T05:37:41.489Z,10
2016-03-30T05:38:41.507Z,10
2016-03-30T05:39:41.495Z,10
2016-03-30T05:40:41.467Z,15
2016-03-30T05:41:41.485Z,15
2016-03-30T05:42:41.457Z,15
2016-03-30T05:43:41.475Z,20
2016-03-30T05:44:41.446Z,20
2016-03-30T05:45:41.481Z,20
2016-03-30T05:46:41.436Z,25
2016-03-30T05:47:41.439Z,25
2016-03-30T05:48:41.409Z,20
2016-03-30T05:49:41.381Z,15
2016-03-30T05:50:41.384Z,15
2016-03-30T05:51:41.417Z,10
2016-03-30T05:52:41.437Z,10
2016-03-30T05:53:41.392Z,10
2016-03-30T05:54:41.380Z,10
2016-03-30T05:55:41.367Z,15
2016-03-30T05:56:41.400Z,15
2016-03-30T05:57:41.356Z,20
2016-03-30T05:58:41.374Z,25
2016-03-30T05:59:41.346Z,25
2016-03-30T06:00:41.364Z,30
2016-03-30T06:01:41.320Z,35
2016-03-30T06:02:41.338Z,40
2016-03-30T06:03:41.325Z,40
2016-03-30T06:04:41.327Z,45
2016-03-30T06:05:41.315Z,45
2016-03-30T06:06:41.302Z,45
2016-03-30T06:07:41.305Z,45
2016-03-30T06:08:41.308Z,45
2016-03-30T06:09:41.279Z,45
2016-03-30T06:10:41.266Z,45
2016-03-30T06:11:41.254Z,45
2016-03-30T06:12:41.303Z,45
2016-03-30T06:13:41.259Z,45
2016-03-30T06:14:41.276Z,45
2016-03-30T06:15:41.264Z,45
2016-03-30T06:16:41.267Z,45
2016-03-30T06:17:41.237Z,45
2016-03-30T06:18:43.834Z,45
2016-03-30T06:19:41.196Z,50
2016-03-30T06:20:41.230Z,50
2016-03-30T06:21:43.905Z,50
2016-03-30T06:22:41.688Z,50
2016-03-30T06:23:42.238Z,55
2016-03-30T06:24:42.147Z,55
2016-03-30T06:25:41.369Z,60
2016-03-30T06:26:41.216Z,60
2016-03-30T06:27:41.265Z,65
2016-03-30T06:28:43.064Z,65
2016-03-30T06:29:41.177Z,70
2016-03-30T06:30:41.741Z,70
2016-03-30T06:31:56.919Z,70
2016-03-30T06:32:41.153Z,70
2016-03-30T06:33:42.624Z,70
2016-03-30T06:34:41.113Z,75
2016-03-30T06:35:41.271Z,80
2016-03-30T06:36:41.352Z,80
2016-03-30T06:37:41.121Z,80
2016-03-30T06:38:41.310Z,80
2016-03-30T06:39:41.110Z,80
2016-03-30T06:40:41.081Z,75
2016-03-30T06:41:41.115Z,75
2016-03-30T06:42:41.102Z,70
2016-03-30T06:43:41.104Z,70
2016-03-30T06:44:41.060Z,70
2016-03-30T06:45:41.078Z,75
2016-03-30T06:46:41.066Z,85
2016-03-30T06:47:41.084Z,95
2016-03-30T06:48:41.025Z,105
2016-03-30T06:49:41.043Z,130
2016-03-30T06:50:41.061Z,120
2016-03-30T06:51:41.064Z,120
2016-03-30T06:52:41.019Z,125
2016-03-30T06:53:41.006Z,130
2016-03-30T06:54:41.009Z,125
2016-03-30T06:55:41.011Z,115
2016-03-30T06:56:40.983Z,110
2016-03-30T06:57:41.017Z,120
2016-03-30T06:58:40.988Z,120
2016-03-30T06:59:41.008Z,115
2016-03-30T07:00:40.978Z,115
2016-03-30T07:01:40.997Z,105
2016-03-30T07:02:40.953Z,115
2016-03-30T07:03:40.955Z,115
2016-03-30T07:04:40.943Z,110
2016-03-30T07:05:40.992Z,120
2016-03-30T07:06:40.948Z,115
2016-03-30T07:07:40.967Z,105
2016-03-30T07:08:40.907Z,95
2016-03-30T07:09:40.941Z,95
2016-03-30T07:10:40.913Z,95
2016-03-30T07:11:40.899Z,105
2016-03-30T07:12:40.933Z,110
2016-03-30T07:13:40.921Z,110
2016-03-30T07:14:40.877Z,105
2016-03-30T07:15:40.911Z,95
2016-03-30T07:16:40.882Z,90
2016-03-30T07:17:40.150Z,85
2016-03-30T07:18:40.857Z,85
2016-03-30T07:19:40.874Z,100
2016-03-30T07:20:40.846Z,110
2016-03-30T07:21:40.864Z,115
2016-03-30T07:22:40.851Z,120
2016-03-30T07:23:40.870Z,125
2016-03-30T07:24:40.856Z,155
2016-03-30T07:25:40.843Z,200
2016-03-30T07:26:40.831Z,190
2016-03-30T07:27:40.802Z,155
2016-03-30T07:28:40.805Z,155
2016-03-30T07:29:40.839Z,165
2016-03-30T07:30:40.810Z,160
2016-03-30T07:31:40.829Z,180
2016-03-30T07:32:40.800Z,200
2016-03-30T07:33:40.803Z,190
2016-03-30T07:34:40.774Z,185
2016-03-30T07:35:40.761Z,165
2016-03-30T07:36:40.764Z,150
2016-03-30T07:37:55.908Z,160
2016-03-30T07:38:40.786Z,160
2016-03-30T07:39:40.756Z,155
2016-03-30T07:40:43.291Z,140
2016-03-30T07:41:41.402Z,135
2016-03-30T07:42:41.733Z,140
2016-03-30T07:43:42.502Z,135
2016-03-30T07:44:41.239Z,135
2016-03-30T07:45:41.086Z,165
2016-03-30T07:46:55.822Z,220
2016-03-30T07:47:54.903Z,215
2016-03-30T07:48:41.030Z,170
2016-03-30T07:49:41.955Z,135
2016-03-30T07:50:57.193Z,185
2016-03-30T07:51:41.649Z,185
2016-03-30T07:52:40.791Z,185
2016-03-30T07:53:41.715Z,180
2016-03-30T07:54:41.593Z,185
2016-03-30T07:55:40.690Z,200
2016-03-30T07:56:41.224Z,220
2016-03-30T07:57:40.648Z,230
2016-03-30T07:58:40.651Z,230
2016-03-30T07:59:40.498Z,230
2016-03-30T08:00:40.798Z,235
2016-03-30T08:01:40.675Z,240
2016-03-30T08:02:40.646Z,250
2016-03-30T08:03:40.649Z,250
2016-03-30T08:04:40.526Z,240
2016-03-30T08:05:40.758Z,235
2016-03-30T08:06:40.858Z,235
2016-03-30T08:07:40.632Z,255
2016-03-30T08:08:41.849Z,280
2016-03-30T08:09:41.537Z,280
2016-03-30T08:10:40.587Z,275
2016-03-30T08:11:40.622Z,290
2016-03-30T08:12:40.562Z,325
2016-03-30T08:13:40.596Z,355
2016-03-30T08:14:40.583Z,355
2016-03-30T08:15:40.742Z,340
2016-03-30T08:16:40.572Z,335
2016-03-30T08:17:40.576Z,335
2016-03-30T08:18:40.547Z,345
2016-03-30T08:19:40.534Z,365
2016-03-30T08:20:40.521Z,380
2016-03-30T08:21:40.555Z,405
2016-03-30T08:22:40.527Z,415
2016-03-30T08:23:40.560Z,405
2016-03-30T08:24:40.564Z,365
2016-03-30T08:25:40.535Z,345
2016-03-30T08:26:40.522Z,345
2016-03-30T08:27:40.524Z,325
2016-03-30T08:28:40.511Z,280
2016-03-30T08:29:40.530Z,255
2016-03-30T08:30:40.517Z,240
2016-03-30T08:31:40.520Z,215
2016-03-30T08:32:40.508Z,185
2016-03-30T08:33:40.494Z,190
2016-03-30T08:34:40.513Z,170
2016-03-30T08:35:40.522Z,145
2016-03-30T08:36:40.508Z,145
2016-03-30T08:37:40.480Z,160
2016-03-30T08:38:40.498Z,180
2016-03-30T08:39:40.485Z,200
2016-03-30T08:40:40.472Z,210
2016-03-30T08:41:40.490Z,215
2016-03-30T08:42:40.461Z,270
2016-03-30T08:43:40.464Z,300
2016-03-30T08:44:40.474Z,290
2016-03-30T08:45:40.570Z,300
2016-03-30T08:46:40.464Z,315
2016-03-30T08:47:40.467Z,350
2016-03-30T08:48:40.454Z,380
2016-03-30T08:49:40.440Z,355
2016-03-30T08:50:40.443Z,320
2016-03-30T08:51:40.462Z,305
2016-03-30T08:52:40.434Z,335
2016-03-30T08:53:40.451Z,330
2016-03-30T08:54:40.439Z,330
2016-03-30T08:56:54.710Z,330
2016-03-30T08:57:54.619Z,355
2016-03-30T08:58:54.824Z,375
2016-03-30T08:59:41.328Z,385
2016-03-30T09:00:42.642Z,395
2016-03-30T09:01:40.583Z,400
2016-03-30T09:02:40.444Z,325
2016-03-30T09:03:41.025Z,285
2016-03-30T09:04:41.200Z,265
2016-03-30T09:05:40.625Z,280
2016-03-30T09:06:54.596Z,365
2016-03-30T09:07:40.427Z,375
2016-03-30T09:08:56.366Z,405
2016-03-30T09:09:43.308Z,415
2016-03-30T09:10:56.482Z,400
2016-03-30T09:11:41.610Z,400
2016-03-30T09:12:41.800Z,425
2016-03-30T09:13:41.006Z,365
2016-03-30T09:14:40.665Z,345
2016-03-30T09:15:41.043Z,350
2016-03-30T09:16:40.374Z,305
2016-03-30T09:17:40.438Z,250
2016-03-30T09:18:40.363Z,245
2016-03-30T09:19:40.396Z,260
2016-03-30T09:20:40.385Z,255
2016-03-30T09:21:40.387Z,255
2016-03-30T09:22:40.359Z,285
2016-03-30T09:23:40.361Z,300
2016-03-30T09:24:40.378Z,310
2016-03-30T09:25:40.366Z,310
2016-03-30T09:26:40.370Z,285
2016-03-30T09:27:40.356Z,250
2016-03-30T09:28:40.358Z,170
2016-03-30T09:29:40.345Z,125
2016-03-30T09:30:40.458Z,120
2016-03-30T09:31:40.383Z,130
2016-03-30T09:32:40.213Z,135
2016-03-30T09:33:40.356Z,150
2016-03-30T09:34:40.328Z,180
2016-03-30T09:35:40.378Z,200
2016-03-30T09:36:40.224Z,240
2016-03-30T09:37:40.352Z,290
2016-03-30T09:38:40.338Z,325
2016-03-30T09:39:40.341Z,325
2016-03-30T09:40:40.328Z,280
2016-03-30T09:41:40.347Z,225
2016-03-30T09:42:40.365Z,220
2016-03-30T09:43:40.336Z,205
2016-03-30T09:44:40.308Z,185
2016-03-30T09:45:40.388Z,215
2016-03-30T09:46:40.344Z,310
2016-03-30T09:47:40.332Z,435
2016-03-30T09:48:40.334Z,500
2016-03-30T09:49:40.306Z,500
2016-03-30T09:50:40.340Z,460
2016-03-30T09:51:40.296Z,440
2016-03-30T09:52:40.314Z,385
2016-03-30T09:53:40.317Z,360
2016-03-30T09:54:40.335Z,370
2016-03-30T09:55:40.306Z,350
2016-03-30T09:56:40.325Z,330
2016-03-30T09:57:40.312Z,410
2016-03-30T09:58:40.330Z,370
2016-03-30T09:59:40.301Z,310
2016-03-30T10:00:40.319Z,250
2016-03-30T10:01:40.292Z,210
2016-03-30T10:02:40.309Z,210
2016-03-30T10:03:40.312Z,260
2016-03-30T10:04:40.314Z,300
2016-03-30T10:05:40.302Z,285
2016-03-30T10:06:40.305Z,265
2016-03-30T10:07:40.292Z,280
2016-03-30T10:08:40.279Z,220
2016-03-30T10:09:40.281Z,200
2016-03-30T10:10:40.315Z,170
2016-03-30T10:11:40.302Z,175
2016-03-30T10:12:40.302Z,150
2016-03-30T10:13:40.264Z,190
2016-03-30T10:14:41.256Z,245
2016-03-30T10:15:41.952Z,185
2016-03-30T10:16:41.380Z,135
2016-03-30T10:17:40.454Z,200
2016-03-30T10:18:43.686Z,230
2016-03-30T10:19:55.702Z,205
2016-03-30T10:20:41.606Z,210
2016-03-30T10:21:41.464Z,205
2016-03-30T10:22:41.354Z,210
2016-03-30T10:23:40.887Z,215
2016-03-30T10:24:56.044Z,275
2016-03-30T10:25:41.405Z,270
2016-03-30T10:26:40.312Z,300
2016-03-30T10:27:41.751Z,335
2016-03-30T10:28:41.878Z,345
2016-03-30T10:29:41.287Z,315
2016-03-30T10:30:40.179Z,305
2016-03-30T10:31:40.760Z,310
2016-03-30T10:32:40.981Z,320
2016-03-30T10:33:40.797Z,345
2016-03-30T10:34:40.689Z,365
2016-03-30T10:35:40.178Z,380
2016-03-30T10:36:40.180Z,360
2016-03-30T10:37:40.167Z,330
2016-03-30T10:38:40.200Z,385
2016-03-30T10:39:40.219Z,420
2016-03-30T10:40:40.190Z,330
2016-03-30T10:41:40.162Z,285
2016-03-30T10:42:40.196Z,270
2016-03-30T10:43:40.167Z,295
2016-03-30T10:44:40.170Z,370
2016-03-30T10:45:40.172Z,365
2016-03-30T10:46:40.190Z,385
2016-03-30T10:47:40.162Z,430
2016-03-30T10:48:40.180Z,440
2016-03-30T10:49:40.168Z,415
2016-03-30T10:50:40.171Z,420
2016-03-30T10:51:40.188Z,405
2016-03-30T10:52:40.160Z,445
2016-03-30T10:53:40.163Z,460
2016-03-30T10:54:40.196Z,340
2016-03-30T10:55:40.184Z,280
2016-03-30T10:56:40.186Z,355
2016-03-30T10:57:40.173Z,425
2016-03-30T10:58:40.192Z,415
2016-03-30T10:59:40.148Z,410
2016-03-30T11:00:40.181Z,425
2016-03-30T11:01:40.169Z,425
2016-03-30T11:02:40.187Z,465
2016-03-30T11:03:40.174Z,470
2016-03-30T11:04:40.178Z,465
2016-03-30T11:05:40.164Z,475
2016-03-30T11:06:40.167Z,485
2016-03-30T11:07:40.169Z,480
2016-03-30T11:08:40.188Z,475
2016-03-30T11:09:40.174Z,470
2016-03-30T11:10:40.177Z,465
2016-03-30T11:11:40.164Z,455
2016-03-30T11:12:40.167Z,465
2016-03-30T11:13:40.169Z,470
2016-03-30T11:14:40.172Z,470
2016-03-30T11:15:40.174Z,470
2016-03-30T11:16:40.022Z,470
2016-03-30T11:17:40.180Z,480
2016-03-30T11:18:40.183Z,475
2016-03-30T11:19:40.185Z,470
2016-03-30T11:20:40.188Z,460
2016-03-30T11:21:40.160Z,455
2016-03-30T11:22:40.163Z,450
2016-03-30T11:23:40.165Z,435
2016-03-30T11:24:40.199Z,425
2016-03-30T11:25:40.202Z,415
2016-03-30T11:26:40.173Z,405
2016-03-30T11:27:40.176Z,400
2016-03-30T11:28:40.179Z,405
2016-03-30T11:29:40.197Z,415
2016-03-30T11:30:40.184Z,425
2016-03-30T11:31:40.203Z,425
2016-03-30T11:32:40.190Z,415
2016-03-30T11:33:55.739Z,375
2016-03-30T11:34:40.836Z,350
2016-03-30T11:35:40.228Z,325
2016-03-30T11:36:40.200Z,315
2016-03-30T11:38:42.362Z,320
2016-03-30T11:39:40.303Z,325
2016-03-30T11:40:41.492Z,335
2016-03-30T11:41:41.011Z,335
2016-03-30T11:42:40.794Z,340
2016-03-30T11:43:41.875Z,335
2016-03-30T11:44:40.738Z,330
2016-03-30T11:45:40.663Z,330
2016-03-30T11:46:43.352Z,325
2016-03-30T11:47:41.792Z,320
2016-03-30T11:48:42.060Z,320
2016-03-30T11:49:41.266Z,325
2016-03-30T11:50:41.082Z,330
2016-03-30T11:51:40.740Z,340
2016-03-30T11:52:40.384Z,350
2016-03-30T11:53:40.699Z,360
2016-03-30T11:54:40.233Z,365
2016-03-30T11:55:40.221Z,360
2016-03-30T11:56:40.207Z,360
2016-03-30T11:57:40.194Z,355
2016-03-30T11:58:40.213Z,350
2016-03-30T11:59:40.215Z,340
2016-03-30T12:00:40.203Z,325
2016-03-30T12:01:40.283Z,335
2016-03-30T12:02:40.223Z,345
2016-03-30T12:03:40.242Z,360
2016-03-30T12:04:40.182Z,360
2016-03-30T12:05:40.216Z,365
2016-03-30T12:06:40.202Z,360
2016-03-30T12:07:40.236Z,345
2016-03-30T12:08:40.068Z,350
2016-03-30T12:09:40.215Z,360
2016-03-30T12:10:40.218Z,355
2016-03-30T12:11:40.220Z,365
2016-03-30T12:12:43.223Z,360
2016-03-30T12:13:40.225Z,345
2016-03-30T12:14:40.198Z,355
2016-03-30T12:15:40.231Z,270
2016-03-30T12:16:40.217Z,285
2016-03-30T12:17:40.236Z,340
2016-03-30T12:18:40.209Z,365
2016-03-30T12:19:40.226Z,335
2016-03-30T12:20:40.214Z,340
2016-03-30T12:21:40.247Z,335
2016-03-30T12:22:40.062Z,345
2016-03-30T12:23:40.034Z,330
2016-03-30T12:24:40.225Z,360
2016-03-30T12:25:40.211Z,380
2016-03-30T12:26:40.229Z,395
2016-03-30T12:27:40.232Z,405
2016-03-30T12:28:40.219Z,415
2016-03-30T12:29:40.206Z,425
2016-03-30T12:30:40.209Z,430
2016-03-30T12:31:40.243Z,430
2016-03-30T12:32:40.214Z,425
2016-03-30T12:33:40.233Z,415
2016-03-30T12:34:40.235Z,410
2016-03-30T12:35:40.207Z,405
2016-03-30T12:36:40.256Z,400
2016-03-30T12:37:40.244Z,395
2016-03-30T12:38:40.230Z,405
2016-03-30T12:39:40.233Z,395
2016-03-30T12:40:40.235Z,395
2016-03-30T12:41:40.223Z,395
2016-03-30T12:42:40.241Z,400
2016-03-30T12:43:40.243Z,395
2016-03-30T12:44:40.231Z,390
2016-03-30T12:45:40.217Z,390
2016-03-30T12:46:40.236Z,385
2016-03-30T12:47:40.254Z,385
2016-03-30T12:48:40.242Z,375
2016-03-30T12:49:40.245Z,370
2016-03-30T12:50:40.231Z,375
2016-03-30T12:51:40.265Z,390
2016-03-30T12:53:09.206Z,420
2016-03-30T12:53:40.223Z,440
2016-03-30T12:54:40.258Z,465
2016-03-30T12:55:40.917Z,485
2016-03-30T12:56:58.966Z,495
2016-03-30T12:57:41.422Z,500
2016-03-30T12:58:41.878Z,505
2016-03-30T12:59:41.318Z,510
2016-03-30T13:00:40.789Z,505
2016-03-30T13:01:40.289Z,500
2016-03-30T13:02:41.702Z,495
2016-03-30T13:03:54.469Z,490
2016-03-30T13:04:40.344Z,495
2016-03-30T13:05:55.803Z,490
2016-03-30T13:06:42.881Z,480
2016-03-30T13:07:41.727Z,475
2016-03-30T13:08:40.730Z,475
2016-03-30T13:09:40.952Z,485
2016-03-30T13:10:40.954Z,490
2016-03-30T13:11:40.848Z,495
2016-03-30T13:12:40.272Z,505
2016-03-30T13:13:40.431Z,515
2016-03-30T13:14:40.247Z,520
2016-03-30T13:15:40.265Z,530
2016-03-30T13:16:40.252Z,530
2016-03-30T13:17:40.270Z,535
2016-03-30T13:18:40.242Z,540
2016-03-30T13:19:40.276Z,550
2016-03-30T13:20:40.278Z,560
2016-03-30T13:21:40.281Z,555
2016-03-30T13:22:40.268Z,545
2016-03-30T13:23:40.287Z,535
2016-03-30T13:24:40.273Z,520
2016-03-30T13:25:40.261Z,515
2016-03-30T13:26:40.278Z,505
2016-03-30T13:27:40.297Z,495
2016-03-30T13:28:40.269Z,485
2016-03-30T13:29:40.286Z,485
2016-03-30T13:30:40.290Z,490
2016-03-30T13:31:40.292Z,490
2016-03-30T13:32:40.279Z,480
2016-03-30T13:33:40.297Z,475
2016-03-30T13:34:40.286Z,470
2016-03-30T13:35:40.303Z,460
2016-03-30T13:36:40.305Z,450
2016-03-30T13:37:40.308Z,440
2016-03-30T13:38:40.358Z,430
2016-03-30T13:39:40.298Z,425
2016-03-30T13:40:40.302Z,420
2016-03-30T13:41:40.319Z,410
2016-03-30T13:42:40.306Z,400
2016-03-30T13:43:40.310Z,390
2016-03-30T13:44:40.327Z,380
2016-03-30T13:45:40.299Z,370
2016-03-30T13:46:40.504Z,350
2016-03-30T13:47:40.320Z,335
2016-03-30T13:48:40.337Z,335
2016-03-30T13:49:40.310Z,340
2016-03-30T13:50:40.328Z,340
2016-03-30T13:51:40.331Z,335
2016-03-30T13:52:40.317Z,330
2016-03-30T13:53:40.337Z,320
2016-03-30T13:54:40.339Z,315
2016-03-30T13:55:40.310Z,315
2016-03-30T13:56:40.328Z,310
2016-03-30T13:57:40.347Z,305
2016-03-30T13:58:40.365Z,310
2016-03-30T13:59:40.321Z,325
2016-03-30T14:00:40.339Z,325
2016-03-30T14:01:40.311Z,335
2016-03-30T14:02:40.344Z,335
2016-03-30T14:03:40.347Z,330
2016-03-30T14:04:40.334Z,330
2016-03-30T14:05:40.369Z,330
2016-03-30T14:06:40.355Z,330
2016-03-30T14:07:40.358Z,330
2016-03-30T14:08:40.345Z,330
2016-03-30T14:09:40.363Z,330
2016-03-30T14:10:40.350Z,330
2016-03-30T14:12:08.730Z,315
2016-03-30T14:12:42.496Z,310
2016-03-30T14:13:41.266Z,315
2016-03-30T14:14:40.361Z,325
2016-03-30T14:15:40.536Z,330